createdAt,value
2019-05-07T00:02:14.839Z,76.60
2019-05-07T00:04:44.576Z,76.90
2019-05-07T00:07:14.463Z,77.10
2019-05-07T00:09:44.217Z,77.60
2019-05-07T00:12:13.957Z,78.10
2019-05-07T00:14:57.369Z,78.50
2019-05-07T00:17:15.030Z,78.90
2019-05-07T00:19:44.798Z,78.80
2019-05-07T00:22:14.497Z,79.30
2019-05-07T00:24:44.240Z,80.40
2019-05-07T00:27:13.983Z,81.10
2019-05-07T00:29:43.660Z,81.40
2019-05-07T00:32:13.441Z,82.40
2019-05-07T00:34:48.149Z,82.70
2019-05-07T00:37:46.001Z,83.10
2019-05-07T00:40:38.156Z,83.40
2019-05-07T00:43:32.925Z,84.00
2019-05-07T00:46:12.985Z,85.30
2019-05-07T00:48:42.850Z,87.70
2019-05-07T00:51:30.410Z,87.20
2019-05-07T00:54:02.870Z,87.80
2019-05-07T00:56:33.311Z,88.30
2019-05-07T00:59:03.436Z,88.90
2019-05-07T01:01:34.135Z,90.00
2019-05-07T01:04:04.005Z,90.40
2019-05-07T01:06:33.919Z,90.70
2019-05-07T01:09:05.333Z,91.30
2019-05-07T01:11:35.180Z,91.90
2019-05-07T01:14:04.895Z,92.30
2019-05-07T01:16:34.596Z,92.80
2019-05-07T01:19:04.363Z,93.40
2019-05-07T01:21:34.060Z,94.10
2019-05-07T01:24:03.794Z,94.50
2019-05-07T01:26:33.705Z,94.90
2019-05-07T01:29:03.563Z,95.20
2019-05-07T01:31:38.233Z,95.30
2019-05-07T01:34:23.161Z,95.40
2019-05-07T01:36:52.948Z,95.60
2019-05-07T01:39:23.146Z,96.30
2019-05-07T01:41:53.487Z,96.60
2019-05-07T01:44:23.177Z,97.10
2019-05-07T01:46:53.048Z,97.70
2019-05-07T01:49:24.062Z,97.90
2019-05-07T01:51:54.353Z,98.30
2019-05-07T01:54:25.083Z,98.70
2019-05-07T01:56:54.801Z,99.20
2019-05-07T01:59:24.516Z,99.70
2019-05-07T02:01:56.784Z,99.90
2019-05-07T02:04:33.111Z,99.90
2019-05-07T02:07:30.935Z,99.90
2019-05-07T02:10:32.197Z,99.90
2019-05-07T02:13:02.400Z,99.90
2019-05-07T02:15:32.463Z,99.90
2019-05-07T02:18:02.399Z,99.90
2019-05-07T02:20:32.375Z,99.90
2019-05-07T02:23:02.845Z,99.90
2019-05-07T02:25:32.989Z,99.90
2019-05-07T02:28:02.963Z,99.90
2019-05-07T02:30:35.116Z,99.90
2019-05-07T02:33:04.097Z,99.90
2019-05-07T02:35:33.864Z,99.90
2019-05-07T02:38:13.762Z,99.90
2019-05-07T02:40:48.941Z,99.90
2019-05-07T02:43:18.645Z,99.90
2019-05-07T02:46:25.071Z,99.90
2019-05-07T02:48:53.656Z,99.90
2019-05-07T02:51:29.342Z,99.90
2019-05-07T02:54:05.307Z,99.90
2019-05-07T02:56:35.044Z,99.90
2019-05-07T02:59:04.797Z,99.90
2019-05-07T03:01:34.557Z,99.90
2019-05-07T03:04:04.330Z,99.90
2019-05-07T03:06:34.330Z,99.90
2019-05-07T03:09:04.719Z,99.90
2019-05-07T03:11:34.496Z,99.90
2019-05-07T03:14:04.453Z,99.90
2019-05-07T03:16:42.541Z,99.90
2019-05-07T03:19:05.605Z,99.90
2019-05-07T03:21:54.289Z,99.90
2019-05-07T03:24:44.567Z,99.90
2019-05-07T03:27:15.000Z,99.90
2019-05-07T03:29:53.391Z,99.90
2019-05-07T03:32:36.818Z,99.90
2019-05-07T03:35:20.451Z,99.90
2019-05-07T03:37:50.822Z,99.90
2019-05-07T03:40:22.878Z,99.90
2019-05-07T03:42:53.442Z,99.90
2019-05-07T03:45:34.089Z,99.90
2019-05-07T03:48:14.811Z,99.90
2019-05-07T03:50:44.585Z,99.90
2019-05-07T03:53:14.650Z,99.90
2019-05-07T03:55:44.946Z,99.90
2019-05-07T03:58:15.077Z,99.90
2019-05-07T04:00:45.871Z,99.90
2019-05-07T04:03:19.218Z,99.90
2019-05-07T04:05:48.291Z,99.90
2019-05-07T04:08:18.005Z,99.90
2019-05-07T04:10:47.677Z,99.90
2019-05-07T04:13:17.374Z,99.90
2019-05-07T04:15:47.138Z,99.90
2019-05-07T04:18:16.794Z,99.90
2019-05-07T04:20:46.482Z,99.90
2019-05-07T04:23:16.210Z,99.90
2019-05-07T04:26:04.462Z,99.70
2019-05-07T04:29:05.581Z,98.60
2019-05-07T04:31:37.943Z,98.10
2019-05-07T04:34:16.087Z,98.40
2019-05-07T04:36:48.197Z,98.70
2019-05-07T04:39:17.930Z,99.80
2019-05-07T04:41:47.614Z,99.90
2019-05-07T04:44:19.751Z,99.90
2019-05-07T04:46:49.532Z,99.90
2019-05-07T04:49:19.331Z,99.90
2019-05-07T04:51:58.872Z,99.90
2019-05-07T04:54:28.750Z,99.90
2019-05-07T04:56:58.477Z,99.90
2019-05-07T04:59:28.165Z,99.90
2019-05-07T05:02:04.345Z,99.90
2019-05-07T05:04:35.076Z,99.90
2019-05-07T05:07:04.825Z,99.90
2019-05-07T05:09:34.509Z,99.90
2019-05-07T05:12:04.229Z,99.90
2019-05-07T05:14:34.150Z,99.40
2019-05-07T05:17:04.008Z,99.00
2019-05-07T05:19:33.773Z,99.60
2019-05-07T05:22:22.036Z,99.20
2019-05-07T05:25:08.413Z,98.90
2019-05-07T05:27:38.255Z,98.60
2019-05-07T05:30:12.305Z,98.50
2019-05-07T05:32:42.447Z,98.10
2019-05-07T05:35:12.739Z,98.00
2019-05-07T05:37:43.010Z,98.70
2019-05-07T05:40:13.408Z,97.90
2019-05-07T05:42:49.296Z,97.80
2019-05-07T05:45:34.195Z,97.30
2019-05-07T05:48:08.005Z,97.70
2019-05-07T05:50:43.633Z,96.70
2019-05-07T05:53:24.286Z,97.10
2019-05-07T05:55:55.311Z,97.20
2019-05-07T05:58:43.200Z,97.40
2019-05-07T06:01:28.596Z,96.30
2019-05-07T06:04:05.946Z,95.90
2019-05-07T06:07:11.329Z,95.40
2019-05-07T06:10:14.847Z,95.60
2019-05-07T06:12:55.609Z,95.50
2019-05-07T06:15:43.151Z,94.50
2019-05-07T06:18:32.737Z,93.90
2019-05-07T06:21:16.774Z,93.20
2019-05-07T06:23:52.689Z,92.80
2019-05-07T06:26:22.732Z,92.80
2019-05-07T06:28:52.540Z,92.30
2019-05-07T06:31:25.160Z,91.90
2019-05-07T06:33:54.925Z,92.30
2019-05-07T06:36:27.224Z,91.10
2019-05-07T06:39:08.106Z,90.50
2019-05-07T06:41:55.415Z,90.70
2019-05-07T06:44:27.932Z,90.70
2019-05-07T06:46:57.686Z,90.90
2019-05-07T06:49:27.453Z,90.60
2019-05-07T06:51:57.148Z,90.00
2019-05-07T06:54:26.975Z,89.30
2019-05-07T06:56:56.753Z,88.90
2019-05-07T06:59:34.793Z,88.80
2019-05-07T07:02:23.000Z,88.80
2019-05-07T07:05:06.589Z,86.50
2019-05-07T07:07:53.161Z,86.20
2019-05-07T07:10:32.907Z,88.30
2019-05-07T07:13:02.751Z,86.50
2019-05-07T07:15:32.561Z,87.00
2019-05-07T07:18:03.147Z,85.80
2019-05-07T07:20:33.058Z,85.00
2019-05-07T07:23:02.723Z,83.40
2019-05-07T07:25:32.725Z,84.80
2019-05-07T07:28:02.850Z,83.50
2019-05-07T07:31:09.929Z,85.00
2019-05-07T07:33:43.686Z,84.00
2019-05-07T07:36:13.287Z,84.00
2019-05-07T07:38:43.029Z,81.70
2019-05-07T07:41:22.435Z,80.60
2019-05-07T07:43:52.656Z,82.10
2019-05-07T07:46:22.911Z,80.30
2019-05-07T07:49:06.671Z,78.90
2019-05-07T07:51:38.088Z,79.50
2019-05-07T07:53:55.324Z,77.50
2019-05-07T07:57:02.495Z,75.90
2019-05-07T07:59:52.872Z,74.00
2019-05-07T08:02:36.321Z,75.00
2019-05-07T08:05:08.898Z,72.00
2019-05-07T08:07:38.352Z,69.60
2019-05-07T08:10:09.825Z,70.10
2019-05-07T08:12:42.209Z,69.50
2019-05-07T08:15:18.073Z,66.10
2019-05-07T08:17:43.839Z,63.60
2019-05-07T08:20:14.020Z,63.80
2019-05-07T08:22:45.069Z,64.80
2019-05-07T08:25:15.058Z,64.30
2019-05-07T08:27:44.828Z,62.30
2019-05-07T08:30:22.696Z,62.80
2019-05-07T08:33:03.740Z,63.40
2019-05-07T08:35:46.259Z,64.40
2019-05-07T08:38:18.739Z,64.00
2019-05-07T08:40:52.118Z,63.30
2019-05-07T08:43:22.723Z,61.60
2019-05-07T08:46:16.768Z,60.40
2019-05-07T08:48:52.806Z,59.70
2019-05-07T08:51:22.556Z,60.20
2019-05-07T08:54:05.768Z,61.00
2019-05-07T08:56:36.771Z,62.90
2019-05-07T08:59:08.479Z,64.30
2019-05-07T09:01:43.242Z,64.50
2019-05-07T09:04:13.642Z,63.60
2019-05-07T09:06:44.467Z,62.70
2019-05-07T09:09:17.562Z,63.30
2019-05-07T09:11:49.207Z,61.70
2019-05-07T09:14:26.125Z,61.00
2019-05-07T09:17:02.562Z,61.30
2019-05-07T09:19:50.593Z,59.20
2019-05-07T09:22:22.894Z,58.60
2019-05-07T09:24:52.588Z,60.30
2019-05-07T09:27:52.789Z,61.00
2019-05-07T09:30:30.002Z,58.20
2019-05-07T09:33:04.281Z,58.60
2019-05-07T09:35:42.425Z,56.20
2019-05-07T09:38:12.568Z,56.40
2019-05-07T09:40:42.278Z,55.20
2019-05-07T09:43:12.007Z,56.90
2019-05-07T09:45:42.025Z,56.40
2019-05-07T09:48:12.168Z,55.60
2019-05-07T09:50:42.997Z,56.30
2019-05-07T09:53:12.930Z,55.80
2019-05-07T09:55:42.862Z,55.00
2019-05-07T09:58:12.766Z,54.40
2019-05-07T10:00:42.705Z,53.70
2019-05-07T10:03:12.901Z,54.20
2019-05-07T10:05:43.043Z,54.20
2019-05-07T10:08:13.099Z,53.40
2019-05-07T10:10:45.069Z,53.60
2019-05-07T10:13:27.961Z,54.50
2019-05-07T10:15:57.697Z,54.20
2019-05-07T10:18:27.356Z,55.30
2019-05-07T10:20:57.210Z,55.40
2019-05-07T10:23:26.928Z,55.60
2019-05-07T10:25:57.818Z,54.80
2019-05-07T10:28:27.610Z,54.00
2019-05-07T10:30:57.321Z,54.10
2019-05-07T10:33:28.551Z,54.30
2019-05-07T10:35:58.475Z,54.40
2019-05-07T10:38:28.243Z,53.80
2019-05-07T10:40:58.696Z,52.90
2019-05-07T10:43:28.380Z,53.50
2019-05-07T10:46:15.268Z,54.50
2019-05-07T10:48:59.109Z,54.40
2019-05-07T10:51:28.876Z,54.20
2019-05-07T10:53:58.559Z,54.50
2019-05-07T10:56:28.245Z,55.70
2019-05-07T10:58:57.996Z,55.80
2019-05-07T11:01:34.833Z,55.30
2019-05-07T11:04:04.818Z,55.90
2019-05-07T11:06:34.553Z,56.50
2019-05-07T11:09:05.553Z,54.60
2019-05-07T11:11:35.308Z,54.50
2019-05-07T11:14:05.074Z,53.40
2019-05-07T11:16:42.972Z,53.90
2019-05-07T11:19:12.691Z,52.70
2019-05-07T11:21:42.639Z,52.00
2019-05-07T11:24:12.334Z,53.80
2019-05-07T11:26:42.073Z,52.00
2019-05-07T11:29:13.002Z,52.40
2019-05-07T11:31:42.800Z,52.70
2019-05-07T11:34:13.867Z,51.70
2019-05-07T11:36:44.122Z,51.50
2019-05-07T11:39:13.884Z,51.40
2019-05-07T11:42:09.553Z,52.10
2019-05-07T11:44:39.218Z,52.90
2019-05-07T11:47:27.136Z,52.30
2019-05-07T11:50:22.999Z,52.70
2019-05-07T11:52:57.736Z,53.40
2019-05-07T11:55:27.437Z,54.50
2019-05-07T11:57:57.132Z,53.20
2019-05-07T12:00:40.053Z,53.20
2019-05-07T12:03:09.820Z,53.10
2019-05-07T12:05:39.514Z,53.00
2019-05-07T12:08:09.275Z,52.90
2019-05-07T12:10:38.986Z,52.00
2019-05-07T12:13:08.655Z,54.50
2019-05-07T12:15:38.823Z,52.40
2019-05-07T12:18:08.529Z,52.30
2019-05-07T12:20:38.311Z,52.80
2019-05-07T12:23:08.023Z,52.60
2019-05-07T12:25:37.685Z,52.60
2019-05-07T12:28:07.499Z,52.60
2019-05-07T12:31:02.238Z,52.70
2019-05-07T12:33:52.211Z,52.90
2019-05-07T12:36:22.737Z,51.70
2019-05-07T12:38:53.389Z,51.90
2019-05-07T12:41:34.099Z,52.30
2019-05-07T12:44:06.874Z,52.80
2019-05-07T12:46:37.649Z,52.60
2019-05-07T12:49:08.359Z,53.20
2019-05-07T12:51:53.853Z,53.70
2019-05-07T12:54:42.096Z,53.70
2019-05-07T12:57:12.040Z,54.00
2019-05-07T12:59:42.590Z,54.30
2019-05-07T13:02:39.846Z,55.20
2019-05-07T13:05:03.029Z,54.80
2019-05-07T13:07:53.279Z,53.80
2019-05-07T13:10:23.017Z,52.80
2019-05-07T13:12:52.802Z,52.80
2019-05-07T13:15:27.608Z,51.80
2019-05-07T13:17:53.888Z,51.10
2019-05-07T13:20:23.807Z,50.60
2019-05-07T13:22:53.477Z,52.70
2019-05-07T13:25:28.389Z,50.90
2019-05-07T13:27:54.779Z,50.30
2019-05-07T13:30:24.568Z,48.30
2019-05-07T13:32:56.420Z,48.80
2019-05-07T13:35:26.806Z,47.90
2019-05-07T13:38:14.804Z,48.90
2019-05-07T13:41:02.560Z,47.70
2019-05-07T13:43:37.701Z,48.50
2019-05-07T13:46:11.899Z,48.80
2019-05-07T13:48:45.667Z,48.80
2019-05-07T13:51:15.593Z,48.00
2019-05-07T13:53:45.239Z,49.20
2019-05-07T13:56:14.971Z,49.90
2019-05-07T13:58:44.671Z,49.70
2019-05-07T14:01:27.926Z,49.90
2019-05-07T14:03:57.705Z,51.60
2019-05-07T14:06:39.583Z,51.50
2019-05-07T14:09:16.496Z,50.90
2019-05-07T14:11:46.192Z,51.00
2019-05-07T14:14:15.920Z,52.70
2019-05-07T14:16:45.812Z,51.60
2019-05-07T14:19:15.728Z,50.50
2019-05-07T14:21:45.440Z,49.60
2019-05-07T14:24:15.133Z,50.60
2019-05-07T14:26:44.818Z,50.00
2019-05-07T14:29:14.612Z,50.60
2019-05-07T14:31:46.036Z,51.10
2019-05-07T14:34:35.107Z,50.60
2019-05-07T14:37:27.807Z,49.30
2019-05-07T14:39:57.572Z,49.80
2019-05-07T14:42:33.225Z,48.60
2019-05-07T14:45:02.910Z,49.20
2019-05-07T14:47:32.558Z,49.10
2019-05-07T14:50:02.298Z,48.20
2019-05-07T14:52:33.754Z,47.70
2019-05-07T14:55:05.304Z,47.90
2019-05-07T14:57:35.082Z,47.90
2019-05-07T15:00:05.230Z,47.90
2019-05-07T15:02:36.925Z,48.10
2019-05-07T15:05:06.965Z,48.40
2019-05-07T15:07:36.629Z,48.40
2019-05-07T15:10:07.002Z,47.90
2019-05-07T15:12:36.737Z,47.20
2019-05-07T15:15:06.864Z,47.00
2019-05-07T15:17:58.508Z,47.40
2019-05-07T15:20:28.183Z,46.90
2019-05-07T15:23:09.238Z,48.20
2019-05-07T15:25:38.886Z,48.40
2019-05-07T15:28:08.813Z,47.40
2019-05-07T15:30:46.394Z,47.60
2019-05-07T15:33:16.076Z,48.50
2019-05-07T15:35:45.875Z,49.10
2019-05-07T15:38:15.558Z,49.60
2019-05-07T15:40:45.267Z,49.60
2019-05-07T15:43:14.998Z,49.10
2019-05-07T15:45:44.695Z,49.60
2019-05-07T15:48:14.412Z,50.70
2019-05-07T15:50:44.247Z,49.50
2019-05-07T15:53:22.060Z,49.60
2019-05-07T15:55:52.304Z,50.10
2019-05-07T15:58:23.237Z,50.20
2019-05-07T16:00:52.934Z,50.60
2019-05-07T16:03:42.946Z,51.10
2019-05-07T16:06:12.967Z,50.70
2019-05-07T16:08:49.555Z,51.50
2019-05-07T16:11:19.394Z,51.30
2019-05-07T16:14:12.383Z,52.00
2019-05-07T16:16:44.014Z,52.00
2019-05-07T16:19:18.304Z,52.90
2019-05-07T16:21:48.038Z,52.70
2019-05-07T16:24:17.707Z,52.20
2019-05-07T16:26:47.488Z,52.10
2019-05-07T16:29:17.242Z,51.60
2019-05-07T16:31:48.768Z,51.60
2019-05-07T16:34:18.478Z,51.20
2019-05-07T16:36:48.196Z,51.20
2019-05-07T16:39:17.875Z,50.20
2019-05-07T16:41:47.603Z,51.20
2019-05-07T16:44:18.192Z,51.20
2019-05-07T16:46:47.847Z,48.80
2019-05-07T16:49:17.589Z,49.30
2019-05-07T16:51:47.262Z,49.70
2019-05-07T16:54:16.983Z,49.50
2019-05-07T16:57:04.891Z,48.90
2019-05-07T16:59:34.644Z,47.70
2019-05-07T17:02:09.513Z,47.70
2019-05-07T17:04:42.551Z,48.80
2019-05-07T17:07:13.976Z,48.20
2019-05-07T17:09:43.764Z,47.90
2019-05-07T17:12:15.078Z,47.30
2019-05-07T17:14:44.860Z,47.20
2019-05-07T17:17:14.645Z,47.00
2019-05-07T17:19:44.368Z,47.40
2019-05-07T17:22:14.375Z,47.30
2019-05-07T17:24:44.056Z,47.00
2019-05-07T17:27:13.787Z,46.80
2019-05-07T17:29:43.482Z,46.70
2019-05-07T17:32:13.233Z,47.20
2019-05-07T17:34:42.937Z,47.40
2019-05-07T17:37:12.737Z,47.00
2019-05-07T17:39:42.691Z,46.90
2019-05-07T17:42:12.625Z,47.00
2019-05-07T17:44:42.321Z,47.30
2019-05-07T17:47:12.753Z,47.50
2019-05-07T17:49:43.504Z,47.50
2019-05-07T17:52:13.314Z,47.40
2019-05-07T17:54:43.001Z,47.50
2019-05-07T17:57:15.710Z,47.90
2019-05-07T17:59:44.019Z,48.30
2019-05-07T18:02:23.848Z,48.30
2019-05-07T18:04:54.668Z,48.30
2019-05-07T18:07:24.462Z,48.60
2019-05-07T18:09:54.173Z,49.00
2019-05-07T18:12:24.007Z,49.50
2019-05-07T18:14:53.698Z,49.80
2019-05-07T18:17:42.075Z,50.20
2019-05-07T18:20:12.852Z,50.60
2019-05-07T18:22:42.824Z,51.00
2019-05-07T18:25:12.676Z,51.60
2019-05-07T18:27:42.323Z,52.10
2019-05-07T18:30:12.866Z,52.30
2019-05-07T18:32:48.282Z,52.70
2019-05-07T18:35:18.027Z,53.10
2019-05-07T18:37:53.936Z,53.60
2019-05-07T18:40:23.964Z,53.90
2019-05-07T18:42:56.678Z,54.30
2019-05-07T18:45:26.389Z,54.60
2019-05-07T18:47:56.135Z,55.10
2019-05-07T18:50:25.804Z,55.40
2019-05-07T18:52:55.531Z,56.10
2019-05-07T18:55:25.260Z,56.40
2019-05-07T18:57:55.031Z,56.90
2019-05-07T19:00:31.799Z,57.40
2019-05-07T19:03:03.436Z,58.10
2019-05-07T19:05:33.076Z,58.60
2019-05-07T19:08:08.433Z,59.10
2019-05-07T19:10:36.644Z,59.80
2019-05-07T19:13:06.370Z,60.60
2019-05-07T19:15:36.274Z,61.90
2019-05-07T19:18:08.196Z,63.00
2019-05-07T19:20:39.480Z,63.80
2019-05-07T19:23:09.243Z,65.10
2019-05-07T19:25:38.937Z,65.90
2019-05-07T19:28:11.972Z,66.60
2019-05-07T19:30:42.026Z,67.50
2019-05-07T19:33:12.459Z,67.80
2019-05-07T19:35:42.508Z,69.20
2019-05-07T19:38:12.180Z,69.50
2019-05-07T19:40:42.065Z,69.60
2019-05-07T19:43:11.870Z,70.90
2019-05-07T19:45:41.901Z,71.30
2019-05-07T19:48:13.213Z,74.60
2019-05-07T19:50:42.903Z,73.20
2019-05-07T19:53:12.774Z,73.30
2019-05-07T19:56:02.022Z,75.50
2019-05-07T19:58:32.793Z,76.60
2019-05-07T20:01:03.987Z,77.50
2019-05-07T20:03:33.682Z,78.70
2019-05-07T20:06:03.538Z,80.00
2019-05-07T20:08:33.235Z,81.40
2019-05-07T20:11:13.356Z,82.10
2019-05-07T20:13:43.759Z,82.60
2019-05-07T20:16:18.038Z,82.60
2019-05-07T20:18:47.797Z,83.20
2019-05-07T20:21:17.467Z,85.50
2019-05-07T20:23:47.188Z,89.10
2019-05-07T20:26:16.937Z,91.00
2019-05-07T20:28:46.628Z,90.70
2019-05-07T20:31:16.354Z,91.10
2019-05-07T20:33:47.363Z,91.10
2019-05-07T20:36:17.067Z,91.40
2019-05-07T20:39:02.175Z,92.00
2019-05-07T20:41:32.551Z,92.40
2019-05-07T20:44:03.096Z,93.00
2019-05-07T20:46:33.126Z,93.80
2019-05-07T20:49:03.161Z,94.00
2019-05-07T20:51:33.181Z,94.30
2019-05-07T20:54:22.873Z,95.50
2019-05-07T20:57:05.431Z,95.70
2019-05-07T20:59:35.156Z,96.50
2019-05-07T21:02:05.012Z,96.10
2019-05-07T21:04:35.720Z,96.50
2019-05-07T21:07:05.539Z,96.60
2019-05-07T21:09:35.276Z,96.70
2019-05-07T21:12:05.064Z,97.10
2019-05-07T21:14:34.814Z,97.50
2019-05-07T21:17:07.621Z,98.70
2019-05-07T21:19:37.310Z,98.70
2019-05-07T21:22:07.012Z,99.10
2019-05-07T21:24:38.533Z,99.00
2019-05-07T21:27:08.304Z,99.50
2019-05-07T21:29:37.964Z,99.80
2019-05-07T21:32:07.604Z,99.90
2019-05-07T21:34:37.911Z,99.90
2019-05-07T21:37:08.569Z,99.90
2019-05-07T21:39:38.639Z,99.90
2019-05-07T21:42:08.348Z,99.90
2019-05-07T21:44:38.528Z,99.90
2019-05-07T21:47:08.265Z,99.90
2019-05-07T21:49:37.983Z,99.90
2019-05-07T21:52:07.717Z,99.90
2019-05-07T21:54:47.099Z,99.90
2019-05-07T21:57:33.000Z,99.90
2019-05-07T22:00:32.595Z,99.90
2019-05-07T22:03:04.538Z,99.90
2019-05-07T22:05:34.223Z,99.90
2019-05-07T22:08:03.973Z,99.90
2019-05-07T22:10:33.678Z,99.90
2019-05-07T22:13:03.402Z,99.90
2019-05-07T22:15:33.083Z,99.90
2019-05-07T22:18:02.834Z,99.90
2019-05-07T22:20:32.599Z,99.90
2019-05-07T22:23:02.817Z,99.90
2019-05-07T22:25:33.011Z,99.90
2019-05-07T22:28:04.767Z,99.90
2019-05-07T22:30:41.835Z,99.90
2019-05-07T22:33:17.748Z,99.90
2019-05-07T22:35:47.459Z,99.90
2019-05-07T22:38:17.142Z,99.90
2019-05-07T22:40:46.813Z,99.90
2019-05-07T22:43:16.505Z,99.90
2019-05-07T22:45:46.243Z,99.90
2019-05-07T22:48:15.947Z,99.90
2019-05-07T22:50:45.618Z,99.90
2019-05-07T22:53:15.316Z,99.90
2019-05-07T22:55:45.067Z,99.90
2019-05-07T22:58:22.000Z,99.90
2019-05-07T23:00:59.619Z,99.90
2019-05-07T23:03:29.299Z,99.90
2019-05-07T23:06:07.329Z,99.90
2019-05-07T23:08:39.048Z,99.90
2019-05-07T23:11:09.186Z,99.90
2019-05-07T23:13:38.982Z,99.90
2019-05-07T23:16:08.649Z,99.90
2019-05-07T23:18:38.402Z,99.90
2019-05-07T23:21:08.125Z,99.90
2019-05-07T23:23:37.790Z,99.90
2019-05-07T23:26:07.480Z,99.90
2019-05-07T23:28:37.136Z,99.90
2019-05-07T23:31:06.843Z,99.90
2019-05-07T23:33:36.584Z,99.90
2019-05-07T23:36:06.237Z,99.90
2019-05-07T23:38:35.900Z,99.90
2019-05-07T23:41:33.514Z,99.90
2019-05-07T23:44:18.312Z,99.90
2019-05-07T23:46:48.093Z,99.90
2019-05-07T23:49:17.763Z,99.90
2019-05-07T23:51:47.539Z,99.90
2019-05-07T23:54:17.204Z,99.90
2019-05-07T23:56:46.905Z,99.90
2019-05-07T23:59:16.622Z,99.90
